sensor_id;sensor_type;location;lat;lon;timestamp;P1;durP1;ratioP1;P2;durP2;ratioP2
50781;SDS011;36749;37.428;-121.972;2024-01-25T00:00:24;1.85;;;0.90;;
50781;SDS011;36749;37.428;-121.972;2024-01-25T00:02:51;1.48;;;0.98;;
50781;SDS011;36749;37.428;-121.972;2024-01-25T00:05:17;4.30;;;1.30;;
50781;SDS011;36749;37.428;-121.972;2024-01-25T00:07:47;2.53;;;1.00;;
50781;SDS011;36749;37.428;-121.972;2024-01-25T00:10:13;1.23;;;0.90;;
50781;SDS011;36749;37.428;-121.972;2024-01-25T00:12:41;0.98;;;0.95;;
50781;SDS011;36749;37.428;-121.972;2024-01-25T00:15:08;3.45;;;1.15;;
50781;SDS011;36749;37.428;-121.972;2024-01-25T00:17:35;2.47;;;1.10;;
50781;SDS011;36749;37.428;-121.972;2024-01-25T00:20:03;2.25;;;1.00;;
50781;SDS011;36749;37.428;-121.972;2024-01-25T00:22:30;1.13;;;1.00;;
50781;SDS011;36749;37.428;-121.972;2024-01-25T00:24:57;1.85;;;1.10;;
50781;SDS011;36749;37.428;-121.972;2024-01-25T00:27:24;0.82;;;0.82;;
50781;SDS011;36749;37.428;-121.972;2024-01-25T00:29:50;1.48;;;0.90;;
50781;SDS011;36749;37.428;-121.972;2024-01-25T00:32:16;2.85;;;0.98;;
50781;SDS011;36749;37.428;-121.972;2024-01-25T00:34:42;1.80;;;1.17;;
50781;SDS011;36749;37.428;-121.972;2024-01-25T00:37:09;1.95;;;1.25;;
50781;SDS011;36749;37.428;-121.972;2024-01-25T00:39:35;1.90;;;1.00;;
50781;SDS011;36749;37.428;-121.972;2024-01-25T00:42:05;0.77;;;0.77;;
50781;SDS011;36749;37.428;-121.972;2024-01-25T00:44:32;0.80;;;0.70;;
50781;SDS011;36749;37.428;-121.972;2024-01-25T00:46:59;0.85;;;0.85;;
50781;SDS011;36749;37.428;-121.972;2024-01-25T00:49:25;0.90;;;0.90;;
50781;SDS011;36749;37.428;-121.972;2024-01-25T00:51:53;0.70;;;0.70;;
50781;SDS011;36749;37.428;-121.972;2024-01-25T00:56:52;2.15;;;0.93;;
50781;SDS011;36749;37.428;-121.972;2024-01-25T00:59:18;0.50;;;0.50;;
50781;SDS011;36749;37.428;-121.972;2024-01-25T01:01:46;0.50;;;0.50;;
50781;SDS011;36749;37.428;-121.972;2024-01-25T01:04:14;0.80;;;0.80;;
50781;SDS011;36749;37.428;-121.972;2024-01-25T01:06:41;0.95;;;0.70;;
50781;SDS011;36749;37.428;-121.972;2024-01-25T01:09:07;0.85;;;0.80;;
50781;SDS011;36749;37.428;-121.972;2024-01-25T01:11:34;1.50;;;1.40;;
50781;SDS011;36749;37.428;-121.972;2024-01-25T01:14:02;1.48;;;0.93;;
50781;SDS011;36749;37.428;-121.972;2024-01-25T01:16:28;1.17;;;1.00;;
50781;SDS011;36749;37.428;-121.972;2024-01-25T01:18:58;2.92;;;1.35;;
50781;SDS011;36749;37.428;-121.972;2024-01-25T01:21:31;2.03;;;0.98;;
50781;SDS011;36749;37.428;-121.972;2024-01-25T01:23:58;2.63;;;0.90;;
50781;SDS011;36749;37.428;-121.972;2024-01-25T01:26:24;1.52;;;0.98;;
50781;SDS011;36749;37.428;-121.972;2024-01-25T01:28:51;1.20;;;0.98;;
50781;SDS011;36749;37.428;-121.972;2024-01-25T01:31:17;0.98;;;0.98;;
50781;SDS011;36749;37.428;-121.972;2024-01-25T01:33:43;1.30;;;0.98;;
50781;SDS011;36749;37.428;-121.972;2024-01-25T01:36:09;1.98;;;1.10;;
50781;SDS011;36749;37.428;-121.972;2024-01-25T01:38:36;2.40;;;0.88;;
50781;SDS011;36749;37.428;-121.972;2024-01-25T01:41:02;1.15;;;1.02;;
50781;SDS011;36749;37.428;-121.972;2024-01-25T01:43:28;1.35;;;1.10;;
50781;SDS011;36749;37.428;-121.972;2024-01-25T01:45:55;1.08;;;1.00;;
50781;SDS011;36749;37.428;-121.972;2024-01-25T01:48:27;0.90;;;0.90;;
50781;SDS011;36749;37.428;-121.972;2024-01-25T01:50:54;2.00;;;1.17;;
50781;SDS011;36749;37.428;-121.972;2024-01-25T01:53:20;1.65;;;1.02;;
50781;SDS011;36749;37.428;-121.972;2024-01-25T01:55:46;0.98;;;0.90;;
50781;SDS011;36749;37.428;-121.972;2024-01-25T01:58:13;1.27;;;0.98;;
50781;SDS011;36749;37.428;-121.972;2024-01-25T02:00:39;3.13;;;1.35;;
50781;SDS011;36749;37.428;-121.972;2024-01-25T02:03:06;1.30;;;1.20;;
50781;SDS011;36749;37.428;-121.972;2024-01-25T02:05:33;1.90;;;1.20;;
50781;SDS011;36749;37.428;-121.972;2024-01-25T02:07:59;2.28;;;0.90;;
50781;SDS011;36749;37.428;-121.972;2024-01-25T02:10:25;1.92;;;1.05;;
50781;SDS011;36749;37.428;-121.972;2024-01-25T02:12:51;2.47;;;1.33;;
50781;SDS011;36749;37.428;-121.972;2024-01-25T02:15:17;1.90;;;1.20;;
50781;SDS011;36749;37.428;-121.972;2024-01-25T02:17:44;1.73;;;1.23;;
50781;SDS011;36749;37.428;-121.972;2024-01-25T02:20:10;2.50;;;1.27;;
50781;SDS011;36749;37.428;-121.972;2024-01-25T02:22:36;2.30;;;1.30;;
50781;SDS011;36749;37.428;-121.972;2024-01-25T02:25:03;1.80;;;0.95;;
50781;SDS011;36749;37.428;-121.972;2024-01-25T02:27:29;1.63;;;1.30;;
50781;SDS011;36749;37.428;-121.972;2024-01-25T02:29:55;2.25;;;1.10;;
50781;SDS011;36749;37.428;-121.972;2024-01-25T02:32:21;1.90;;;1.17;;
50781;SDS011;36749;37.428;-121.972;2024-01-25T02:34:48;1.70;;;1.40;;
50781;SDS011;36749;37.428;-121.972;2024-01-25T02:37:14;1.40;;;1.30;;
50781;SDS011;36749;37.428;-121.972;2024-01-25T02:39:40;2.35;;;1.58;;
50781;SDS011;36749;37.428;-121.972;2024-01-25T02:42:06;3.63;;;1.50;;
50781;SDS011;36749;37.428;-121.972;2024-01-25T02:44:32;2.55;;;1.60;;
50781;SDS011;36749;37.428;-121.972;2024-01-25T02:46:58;1.95;;;1.23;;
50781;SDS011;36749;37.428;-121.972;2024-01-25T02:49:26;1.08;;;1.00;;
50781;SDS011;36749;37.428;-121.972;2024-01-25T02:51:52;5.78;;;2.05;;
50781;SDS011;36749;37.428;-121.972;2024-01-25T02:54:18;2.88;;;2.00;;
50781;SDS011;36749;37.428;-121.972;2024-01-25T02:56:45;3.60;;;1.88;;
50781;SDS011;36749;37.428;-121.972;2024-01-25T02:59:11;3.42;;;1.90;;
50781;SDS011;36749;37.428;-121.972;2024-01-25T03:01:40;3.67;;;1.95;;
50781;SDS011;36749;37.428;-121.972;2024-01-25T03:04:07;3.33;;;2.40;;
50781;SDS011;36749;37.428;-121.972;2024-01-25T03:06:34;2.85;;;1.92;;
50781;SDS011;36749;37.428;-121.972;2024-01-25T03:09:00;2.33;;;1.70;;
50781;SDS011;36749;37.428;-121.972;2024-01-25T03:11:26;4.38;;;2.10;;
50781;SDS011;36749;37.428;-121.972;2024-01-25T03:13:52;2.38;;;1.60;;
50781;SDS011;36749;37.428;-121.972;2024-01-25T03:16:18;1.80;;;1.63;;
50781;SDS011;36749;37.428;-121.972;2024-01-25T03:18:45;1.83;;;1.48;;
50781;SDS011;36749;37.428;-121.972;2024-01-25T03:21:11;3.90;;;1.85;;
50781;SDS011;36749;37.428;-121.972;2024-01-25T03:23:37;1.70;;;1.60;;
50781;SDS011;36749;37.428;-121.972;2024-01-25T03:26:04;2.40;;;1.60;;
50781;SDS011;36749;37.428;-121.972;2024-01-25T03:28:31;3.05;;;1.60;;
50781;SDS011;36749;37.428;-121.972;2024-01-25T03:30:58;1.60;;;1.50;;
50781;SDS011;36749;37.428;-121.972;2024-01-25T03:33:24;2.42;;;1.30;;
50781;SDS011;36749;37.428;-121.972;2024-01-25T03:35:51;2.95;;;1.65;;
50781;SDS011;36749;37.428;-121.972;2024-01-25T03:38:17;1.58;;;1.27;;
50781;SDS011;36749;37.428;-121.972;2024-01-25T03:40:44;1.33;;;1.20;;
50781;SDS011;36749;37.428;-121.972;2024-01-25T03:43:10;2.97;;;1.70;;
50781;SDS011;36749;37.428;-121.972;2024-01-25T03:45:36;2.53;;;1.70;;
50781;SDS011;36749;37.428;-121.972;2024-01-25T03:48:02;3.30;;;1.67;;
50781;SDS011;36749;37.428;-121.972;2024-01-25T03:50:28;1.45;;;1.33;;
50781;SDS011;36749;37.428;-121.972;2024-01-25T03:52:55;1.85;;;1.35;;
50781;SDS011;36749;37.428;-121.972;2024-01-25T03:55:21;1.35;;;1.25;;
50781;SDS011;36749;37.428;-121.972;2024-01-25T03:57:47;2.58;;;1.55;;
50781;SDS011;36749;37.428;-121.972;2024-01-25T04:00:13;2.47;;;1.70;;
50781;SDS011;36749;37.428;-121.972;2024-01-25T04:02:40;2.50;;;1.60;;
50781;SDS011;36749;37.428;-121.972;2024-01-25T04:05:06;3.15;;;1.77;;
50781;SDS011;36749;37.428;-121.972;2024-01-25T04:07:35;3.22;;;1.95;;
50781;SDS011;36749;37.428;-121.972;2024-01-25T04:10:01;1.77;;;1.67;;
50781;SDS011;36749;37.428;-121.972;2024-01-25T04:12:27;3.72;;;1.60;;
50781;SDS011;36749;37.428;-121.972;2024-01-25T04:14:54;1.95;;;1.27;;
50781;SDS011;36749;37.428;-121.972;2024-01-25T04:17:20;2.28;;;1.48;;
50781;SDS011;36749;37.428;-121.972;2024-01-25T04:19:46;1.55;;;1.45;;
50781;SDS011;36749;37.428;-121.972;2024-01-25T04:22:12;1.45;;;1.35;;
50781;SDS011;36749;37.428;-121.972;2024-01-25T04:24:38;2.72;;;1.98;;
50781;SDS011;36749;37.428;-121.972;2024-01-25T04:27:05;5.75;;;2.83;;
50781;SDS011;36749;37.428;-121.972;2024-01-25T04:29:31;3.28;;;2.38;;
50781;SDS011;36749;37.428;-121.972;2024-01-25T04:31:57;3.75;;;2.67;;
50781;SDS011;36749;37.428;-121.972;2024-01-25T04:34:24;2.58;;;2.33;;
50781;SDS011;36749;37.428;-121.972;2024-01-25T04:36:50;2.92;;;1.90;;
50781;SDS011;36749;37.428;-121.972;2024-01-25T04:39:16;2.42;;;2.00;;
50781;SDS011;36749;37.428;-121.972;2024-01-25T04:41:42;6.47;;;2.85;;
50781;SDS011;36749;37.428;-121.972;2024-01-25T04:44:09;3.50;;;2.45;;
50781;SDS011;36749;37.428;-121.972;2024-01-25T04:46:35;3.85;;;2.00;;
50781;SDS011;36749;37.428;-121.972;2024-01-25T04:49:02;2.47;;;1.75;;
50781;SDS011;36749;37.428;-121.972;2024-01-25T04:51:29;5.63;;;2.05;;
50781;SDS011;36749;37.428;-121.972;2024-01-25T04:53:55;2.78;;;1.60;;
50781;SDS011;36749;37.428;-121.972;2024-01-25T04:56:21;2.83;;;1.75;;
50781;SDS011;36749;37.428;-121.972;2024-01-25T04:58:48;2.78;;;1.92;;
50781;SDS011;36749;37.428;-121.972;2024-01-25T05:01:14;2.75;;;1.92;;
50781;SDS011;36749;37.428;-121.972;2024-01-25T05:03:40;1.58;;;1.48;;
50781;SDS011;36749;37.428;-121.972;2024-01-25T05:06:06;3.53;;;1.70;;
50781;SDS011;36749;37.428;-121.972;2024-01-25T05:08:32;2.17;;;1.52;;
50781;SDS011;36749;37.428;-121.972;2024-01-25T05:10:58;1.38;;;1.25;;
50781;SDS011;36749;37.428;-121.972;2024-01-25T05:13:25;1.90;;;1.48;;
50781;SDS011;36749;37.428;-121.972;2024-01-25T05:15:51;1.70;;;1.30;;
50781;SDS011;36749;37.428;-121.972;2024-01-25T05:18:17;1.55;;;1.45;;
50781;SDS011;36749;37.428;-121.972;2024-01-25T05:20:43;1.80;;;1.30;;
50781;SDS011;36749;37.428;-121.972;2024-01-25T05:23:10;1.67;;;1.20;;
50781;SDS011;36749;37.428;-121.972;2024-01-25T05:25:36;2.67;;;1.23;;
50781;SDS011;36749;37.428;-121.972;2024-01-25T05:28:02;1.38;;;1.27;;
50781;SDS011;36749;37.428;-121.972;2024-01-25T05:30:28;2.58;;;1.70;;
50781;SDS011;36749;37.428;-121.972;2024-01-25T05:32:55;2.50;;;1.85;;
50781;SDS011;36749;37.428;-121.972;2024-01-25T05:35:21;1.85;;;1.70;;
50781;SDS011;36749;37.428;-121.972;2024-01-25T05:37:48;2.25;;;1.70;;
50781;SDS011;36749;37.428;-121.972;2024-01-25T05:40:15;8.07;;;1.95;;
50781;SDS011;36749;37.428;-121.972;2024-01-25T05:42:41;6.95;;;2.72;;
50781;SDS011;36749;37.428;-121.972;2024-01-25T05:45:07;9.35;;;1.83;;
50781;SDS011;36749;37.428;-121.972;2024-01-25T05:47:34;8.93;;;2.40;;
50781;SDS011;36749;37.428;-121.972;2024-01-25T05:50:00;7.93;;;2.28;;
50781;SDS011;36749;37.428;-121.972;2024-01-25T05:52:27;9.35;;;2.20;;
50781;SDS011;36749;37.428;-121.972;2024-01-25T05:54:54;8.95;;;1.85;;
50781;SDS011;36749;37.428;-121.972;2024-01-25T05:57:20;13.55;;;2.13;;
50781;SDS011;36749;37.428;-121.972;2024-01-25T05:59:46;15.70;;;2.42;;
50781;SDS011;36749;37.428;-121.972;2024-01-25T06:02:13;12.65;;;2.15;;
50781;SDS011;36749;37.428;-121.972;2024-01-25T06:04:39;13.88;;;2.28;;
50781;SDS011;36749;37.428;-121.972;2024-01-25T06:07:05;10.23;;;1.92;;
50781;SDS011;36749;37.428;-121.972;2024-01-25T06:09:32;9.35;;;2.28;;
50781;SDS011;36749;37.428;-121.972;2024-01-25T06:11:58;10.70;;;2.22;;
50781;SDS011;36749;37.428;-121.972;2024-01-25T06:14:24;6.68;;;2.05;;
50781;SDS011;36749;37.428;-121.972;2024-01-25T06:16:50;13.18;;;2.10;;
50781;SDS011;36749;37.428;-121.972;2024-01-25T06:19:16;8.65;;;2.00;;
50781;SDS011;36749;37.428;-121.972;2024-01-25T06:21:42;6.00;;;2.13;;
50781;SDS011;36749;37.428;-121.972;2024-01-25T06:24:08;8.10;;;2.30;;
50781;SDS011;36749;37.428;-121.972;2024-01-25T06:26:35;9.80;;;2.75;;
50781;SDS011;36749;37.428;-121.972;2024-01-25T06:29:01;10.27;;;1.98;;
50781;SDS011;36749;37.428;-121.972;2024-01-25T06:31:27;9.30;;;2.15;;
50781;SDS011;36749;37.428;-121.972;2024-01-25T06:33:53;5.63;;;1.63;;
50781;SDS011;36749;37.428;-121.972;2024-01-25T06:36:20;6.68;;;2.20;;
50781;SDS011;36749;37.428;-121.972;2024-01-25T06:38:46;10.52;;;2.50;;
50781;SDS011;36749;37.428;-121.972;2024-01-25T06:41:12;7.47;;;1.83;;
50781;SDS011;36749;37.428;-121.972;2024-01-25T06:43:38;9.30;;;2.53;;
50781;SDS011;36749;37.428;-121.972;2024-01-25T06:46:08;13.52;;;2.50;;
50781;SDS011;36749;37.428;-121.972;2024-01-25T06:48:34;10.55;;;2.42;;
50781;SDS011;36749;37.428;-121.972;2024-01-25T06:51:01;15.60;;;3.03;;
50781;SDS011;36749;37.428;-121.972;2024-01-25T06:53:27;11.70;;;2.45;;
50781;SDS011;36749;37.428;-121.972;2024-01-25T06:55:54;7.47;;;2.40;;
50781;SDS011;36749;37.428;-121.972;2024-01-25T06:58:20;9.27;;;3.22;;
50781;SDS011;36749;37.428;-121.972;2024-01-25T07:00:46;12.40;;;2.55;;
50781;SDS011;36749;37.428;-121.972;2024-01-25T07:03:12;6.05;;;2.03;;
50781;SDS011;36749;37.428;-121.972;2024-01-25T07:05:40;8.20;;;2.10;;
50781;SDS011;36749;37.428;-121.972;2024-01-25T07:08:06;12.57;;;2.92;;
50781;SDS011;36749;37.428;-121.972;2024-01-25T07:10:38;12.07;;;2.70;;
50781;SDS011;36749;37.428;-121.972;2024-01-25T07:13:04;9.20;;;2.63;;
50781;SDS011;36749;37.428;-121.972;2024-01-25T07:15:30;16.15;;;3.30;;
50781;SDS011;36749;37.428;-121.972;2024-01-25T07:17:56;10.57;;;3.15;;
50781;SDS011;36749;37.428;-121.972;2024-01-25T07:20:23;14.73;;;2.65;;
50781;SDS011;36749;37.428;-121.972;2024-01-25T07:22:49;13.65;;;2.60;;
50781;SDS011;36749;37.428;-121.972;2024-01-25T07:25:15;17.92;;;3.42;;
50781;SDS011;36749;37.428;-121.972;2024-01-25T07:27:47;13.73;;;3.33;;
50781;SDS011;36749;37.428;-121.972;2024-01-25T07:30:14;15.25;;;2.88;;
50781;SDS011;36749;37.428;-121.972;2024-01-25T07:32:40;11.27;;;2.45;;
50781;SDS011;36749;37.428;-121.972;2024-01-25T07:35:08;9.13;;;2.25;;
50781;SDS011;36749;37.428;-121.972;2024-01-25T07:37:38;9.20;;;2.50;;
50781;SDS011;36749;37.428;-121.972;2024-01-25T07:40:06;12.05;;;2.60;;
50781;SDS011;36749;37.428;-121.972;2024-01-25T07:42:33;11.85;;;2.90;;
50781;SDS011;36749;37.428;-121.972;2024-01-25T07:44:59;14.77;;;2.67;;
50781;SDS011;36749;37.428;-121.972;2024-01-25T07:47:26;20.67;;;3.28;;
50781;SDS011;36749;37.428;-121.972;2024-01-25T07:49:52;17.85;;;3.53;;
50781;SDS011;36749;37.428;-121.972;2024-01-25T07:52:18;13.70;;;3.15;;
50781;SDS011;36749;37.428;-121.972;2024-01-25T07:54:44;11.63;;;3.05;;
50781;SDS011;36749;37.428;-121.972;2024-01-25T07:57:10;10.50;;;2.60;;
50781;SDS011;36749;37.428;-121.972;2024-01-25T07:59:37;18.00;;;3.47;;
50781;SDS011;36749;37.428;-121.972;2024-01-25T08:02:03;15.52;;;3.75;;
50781;SDS011;36749;37.428;-121.972;2024-01-25T08:04:29;18.13;;;3.33;;
50781;SDS011;36749;37.428;-121.972;2024-01-25T08:06:56;18.23;;;3.80;;
50781;SDS011;36749;37.428;-121.972;2024-01-25T08:09:22;15.07;;;3.38;;
50781;SDS011;36749;37.428;-121.972;2024-01-25T08:11:48;20.05;;;3.67;;
50781;SDS011;36749;37.428;-121.972;2024-01-25T08:14:14;22.77;;;4.53;;
50781;SDS011;36749;37.428;-121.972;2024-01-25T08:16:41;16.50;;;4.07;;
50781;SDS011;36749;37.428;-121.972;2024-01-25T08:19:07;21.30;;;3.78;;
50781;SDS011;36749;37.428;-121.972;2024-01-25T08:21:33;25.00;;;4.63;;
50781;SDS011;36749;37.428;-121.972;2024-01-25T08:24:01;16.67;;;3.72;;
50781;SDS011;36749;37.428;-121.972;2024-01-25T08:26:27;20.13;;;3.92;;
50781;SDS011;36749;37.428;-121.972;2024-01-25T08:28:54;15.05;;;3.88;;
50781;SDS011;36749;37.428;-121.972;2024-01-25T08:31:20;19.73;;;4.55;;
50781;SDS011;36749;37.428;-121.972;2024-01-25T08:33:46;15.85;;;3.53;;
50781;SDS011;36749;37.428;-121.972;2024-01-25T08:36:18;26.58;;;4.15;;
50781;SDS011;36749;37.428;-121.972;2024-01-25T08:38:45;21.15;;;3.85;;
50781;SDS011;36749;37.428;-121.972;2024-01-25T08:41:11;18.33;;;3.05;;
50781;SDS011;36749;37.428;-121.972;2024-01-25T08:43:40;15.48;;;3.88;;
50781;SDS011;36749;37.428;-121.972;2024-01-25T08:46:07;19.95;;;5.43;;
50781;SDS011;36749;37.428;-121.972;2024-01-25T08:48:34;21.83;;;3.67;;
50781;SDS011;36749;37.428;-121.972;2024-01-25T08:51:00;15.32;;;3.70;;
50781;SDS011;36749;37.428;-121.972;2024-01-25T08:53:27;15.50;;;4.15;;
50781;SDS011;36749;37.428;-121.972;2024-01-25T08:55:53;13.65;;;4.05;;
50781;SDS011;36749;37.428;-121.972;2024-01-25T08:58:20;15.63;;;3.55;;
50781;SDS011;36749;37.428;-121.972;2024-01-25T09:00:46;19.88;;;3.83;;
50781;SDS011;36749;37.428;-121.972;2024-01-25T09:03:15;16.70;;;3.90;;
50781;SDS011;36749;37.428;-121.972;2024-01-25T09:05:42;18.67;;;3.72;;
50781;SDS011;36749;37.428;-121.972;2024-01-25T09:08:11;19.70;;;5.15;;
50781;SDS011;36749;37.428;-121.972;2024-01-25T09:10:38;19.48;;;4.65;;
50781;SDS011;36749;37.428;-121.972;2024-01-25T09:13:05;15.50;;;3.10;;
50781;SDS011;36749;37.428;-121.972;2024-01-25T09:15:32;16.50;;;4.75;;
50781;SDS011;36749;37.428;-121.972;2024-01-25T09:17:58;13.77;;;3.65;;
50781;SDS011;36749;37.428;-121.972;2024-01-25T09:20:24;17.70;;;3.80;;
50781;SDS011;36749;37.428;-121.972;2024-01-25T09:22:51;13.02;;;3.20;;
50781;SDS011;36749;37.428;-121.972;2024-01-25T09:25:19;13.77;;;3.88;;
50781;SDS011;36749;37.428;-121.972;2024-01-25T09:27:45;19.60;;;4.10;;
50781;SDS011;36749;37.428;-121.972;2024-01-25T09:30:11;20.10;;;3.72;;
50781;SDS011;36749;37.428;-121.972;2024-01-25T09:32:38;15.80;;;3.80;;
50781;SDS011;36749;37.428;-121.972;2024-01-25T09:35:05;15.70;;;3.45;;
50781;SDS011;36749;37.428;-121.972;2024-01-25T09:37:31;17.63;;;3.53;;
50781;SDS011;36749;37.428;-121.972;2024-01-25T09:39:57;18.38;;;3.97;;
50781;SDS011;36749;37.428;-121.972;2024-01-25T09:42:27;18.58;;;3.40;;
50781;SDS011;36749;37.428;-121.972;2024-01-25T09:44:54;13.43;;;3.25;;
50781;SDS011;36749;37.428;-121.972;2024-01-25T09:47:20;13.38;;;3.35;;
50781;SDS011;36749;37.428;-121.972;2024-01-25T09:49:47;12.55;;;3.45;;
50781;SDS011;36749;37.428;-121.972;2024-01-25T09:52:13;11.27;;;2.53;;
50781;SDS011;36749;37.428;-121.972;2024-01-25T09:54:40;14.13;;;3.28;;
50781;SDS011;36749;37.428;-121.972;2024-01-25T09:57:08;17.77;;;3.33;;
50781;SDS011;36749;37.428;-121.972;2024-01-25T09:59:44;11.73;;;3.63;;
50781;SDS011;36749;37.428;-121.972;2024-01-25T10:02:10;15.35;;;3.58;;
50781;SDS011;36749;37.428;-121.972;2024-01-25T10:04:37;20.33;;;3.55;;
50781;SDS011;36749;37.428;-121.972;2024-01-25T10:07:03;13.60;;;3.08;;
50781;SDS011;36749;37.428;-121.972;2024-01-25T10:09:40;14.80;;;3.90;;
50781;SDS011;36749;37.428;-121.972;2024-01-25T10:12:07;18.95;;;3.78;;
50781;SDS011;36749;37.428;-121.972;2024-01-25T10:14:33;13.52;;;3.38;;
50781;SDS011;36749;37.428;-121.972;2024-01-25T10:17:00;18.52;;;4.03;;
50781;SDS011;36749;37.428;-121.972;2024-01-25T10:19:26;16.77;;;3.90;;
50781;SDS011;36749;37.428;-121.972;2024-01-25T10:21:53;16.35;;;3.90;;
50781;SDS011;36749;37.428;-121.972;2024-01-25T10:24:19;16.83;;;4.53;;
50781;SDS011;36749;37.428;-121.972;2024-01-25T10:26:46;11.48;;;3.45;;
50781;SDS011;36749;37.428;-121.972;2024-01-25T10:29:14;13.10;;;3.58;;
50781;SDS011;36749;37.428;-121.972;2024-01-25T10:31:40;13.70;;;3.67;;
50781;SDS011;36749;37.428;-121.972;2024-01-25T10:34:08;13.75;;;3.97;;
50781;SDS011;36749;37.428;-121.972;2024-01-25T10:36:37;12.95;;;4.20;;
50781;SDS011;36749;37.428;-121.972;2024-01-25T10:39:04;13.48;;;3.40;;
50781;SDS011;36749;37.428;-121.972;2024-01-25T10:41:33;13.02;;;3.53;;
50781;SDS011;36749;37.428;-121.972;2024-01-25T10:44:00;16.60;;;3.78;;
50781;SDS011;36749;37.428;-121.972;2024-01-25T10:46:28;13.27;;;3.65;;
50781;SDS011;36749;37.428;-121.972;2024-01-25T10:48:58;13.82;;;4.43;;
50781;SDS011;36749;37.428;-121.972;2024-01-25T10:51:25;15.20;;;3.78;;
50781;SDS011;36749;37.428;-121.972;2024-01-25T10:53:52;17.38;;;4.07;;
50781;SDS011;36749;37.428;-121.972;2024-01-25T10:56:18;13.43;;;4.18;;
50781;SDS011;36749;37.428;-121.972;2024-01-25T10:58:44;16.60;;;4.72;;
50781;SDS011;36749;37.428;-121.972;2024-01-25T11:01:11;19.10;;;4.30;;
50781;SDS011;36749;37.428;-121.972;2024-01-25T11:03:38;12.65;;;3.97;;
50781;SDS011;36749;37.428;-121.972;2024-01-25T11:08:36;15.45;;;3.88;;
50781;SDS011;36749;37.428;-121.972;2024-01-25T11:11:11;16.70;;;4.10;;
50781;SDS011;36749;37.428;-121.972;2024-01-25T11:13:39;13.30;;;3.72;;
50781;SDS011;36749;37.428;-121.972;2024-01-25T11:16:15;14.07;;;4.13;;
50781;SDS011;36749;37.428;-121.972;2024-01-25T11:18:52;14.07;;;4.53;;
50781;SDS011;36749;37.428;-121.972;2024-01-25T11:21:26;18.92;;;4.65;;
50781;SDS011;36749;37.428;-121.972;2024-01-25T11:24:03;14.65;;;3.75;;
50781;SDS011;36749;37.428;-121.972;2024-01-25T11:26:32;16.42;;;3.72;;
50781;SDS011;36749;37.428;-121.972;2024-01-25T11:28:59;18.58;;;4.68;;
50781;SDS011;36749;37.428;-121.972;2024-01-25T11:31:29;12.00;;;3.05;;
50781;SDS011;36749;37.428;-121.972;2024-01-25T11:33:58;27.05;;;4.63;;
50781;SDS011;36749;37.428;-121.972;2024-01-25T11:36:28;18.23;;;3.95;;
50781;SDS011;36749;37.428;-121.972;2024-01-25T11:38:54;14.60;;;3.78;;
50781;SDS011;36749;37.428;-121.972;2024-01-25T11:41:20;15.27;;;3.83;;
50781;SDS011;36749;37.428;-121.972;2024-01-25T11:43:50;16.83;;;4.22;;
50781;SDS011;36749;37.428;-121.972;2024-01-25T11:46:16;18.65;;;5.15;;
50781;SDS011;36749;37.428;-121.972;2024-01-25T11:48:43;17.85;;;4.15;;
50781;SDS011;36749;37.428;-121.972;2024-01-25T11:51:09;13.68;;;4.10;;
50781;SDS011;36749;37.428;-121.972;2024-01-25T11:53:39;13.52;;;4.10;;
50781;SDS011;36749;37.428;-121.972;2024-01-25T11:56:06;21.25;;;3.67;;
50781;SDS011;36749;37.428;-121.972;2024-01-25T11:58:38;23.98;;;4.72;;
50781;SDS011;36749;37.428;-121.972;2024-01-25T12:01:05;17.05;;;3.95;;
50781;SDS011;36749;37.428;-121.972;2024-01-25T12:03:36;17.92;;;3.72;;
50781;SDS011;36749;37.428;-121.972;2024-01-25T12:06:05;11.48;;;3.13;;
50781;SDS011;36749;37.428;-121.972;2024-01-25T12:08:34;15.50;;;3.38;;
50781;SDS011;36749;37.428;-121.972;2024-01-25T12:11:04;16.40;;;3.28;;
50781;SDS011;36749;37.428;-121.972;2024-01-25T12:13:35;18.73;;;4.23;;
50781;SDS011;36749;37.428;-121.972;2024-01-25T12:16:05;16.35;;;3.95;;
50781;SDS011;36749;37.428;-121.972;2024-01-25T12:18:31;14.35;;;4.13;;
50781;SDS011;36749;37.428;-121.972;2024-01-25T12:20:58;15.13;;;3.60;;
50781;SDS011;36749;37.428;-121.972;2024-01-25T12:23:35;18.55;;;4.32;;
50781;SDS011;36749;37.428;-121.972;2024-01-25T12:26:06;14.48;;;3.55;;
50781;SDS011;36749;37.428;-121.972;2024-01-25T12:28:33;22.10;;;5.03;;
50781;SDS011;36749;37.428;-121.972;2024-01-25T12:30:59;16.88;;;4.18;;
50781;SDS011;36749;37.428;-121.972;2024-01-25T12:33:26;11.93;;;3.65;;
50781;SDS011;36749;37.428;-121.972;2024-01-25T12:35:52;18.75;;;4.40;;
50781;SDS011;36749;37.428;-121.972;2024-01-25T12:38:22;16.35;;;3.97;;
50781;SDS011;36749;37.428;-121.972;2024-01-25T12:40:49;15.50;;;3.67;;
50781;SDS011;36749;37.428;-121.972;2024-01-25T12:43:16;10.57;;;3.38;;
50781;SDS011;36749;37.428;-121.972;2024-01-25T12:45:42;18.17;;;4.05;;
50781;SDS011;36749;37.428;-121.972;2024-01-25T12:48:09;22.88;;;4.65;;
50781;SDS011;36749;37.428;-121.972;2024-01-25T12:50:36;16.52;;;4.10;;
50781;SDS011;36749;37.428;-121.972;2024-01-25T12:53:02;19.20;;;3.92;;
50781;SDS011;36749;37.428;-121.972;2024-01-25T12:55:29;14.23;;;4.03;;
50781;SDS011;36749;37.428;-121.972;2024-01-25T12:57:56;11.43;;;3.28;;
50781;SDS011;36749;37.428;-121.972;2024-01-25T13:00:23;13.18;;;4.18;;
50781;SDS011;36749;37.428;-121.972;2024-01-25T13:02:50;15.63;;;3.67;;
50781;SDS011;36749;37.428;-121.972;2024-01-25T13:05:16;14.88;;;4.10;;
50781;SDS011;36749;37.428;-121.972;2024-01-25T13:07:42;12.60;;;4.35;;
50781;SDS011;36749;37.428;-121.972;2024-01-25T13:10:08;13.82;;;3.88;;
50781;SDS011;36749;37.428;-121.972;2024-01-25T13:12:38;12.55;;;3.65;;
50781;SDS011;36749;37.428;-121.972;2024-01-25T13:15:05;12.40;;;3.30;;
50781;SDS011;36749;37.428;-121.972;2024-01-25T13:17:33;13.80;;;3.70;;
50781;SDS011;36749;37.428;-121.972;2024-01-25T13:20:00;19.88;;;4.43;;
50781;SDS011;36749;37.428;-121.972;2024-01-25T13:22:27;18.15;;;4.22;;
50781;SDS011;36749;37.428;-121.972;2024-01-25T13:24:55;17.63;;;4.32;;
50781;SDS011;36749;37.428;-121.972;2024-01-25T13:27:21;15.15;;;4.55;;
50781;SDS011;36749;37.428;-121.972;2024-01-25T13:29:47;15.38;;;4.65;;
50781;SDS011;36749;37.428;-121.972;2024-01-25T13:32:13;18.30;;;4.88;;
50781;SDS011;36749;37.428;-121.972;2024-01-25T13:34:40;18.83;;;5.35;;
50781;SDS011;36749;37.428;-121.972;2024-01-25T13:37:06;15.70;;;6.32;;
50781;SDS011;36749;37.428;-121.972;2024-01-25T13:39:32;23.10;;;6.28;;
50781;SDS011;36749;37.428;-121.972;2024-01-25T13:41:58;13.82;;;5.82;;
50781;SDS011;36749;37.428;-121.972;2024-01-25T13:44:24;18.25;;;5.60;;
50781;SDS011;36749;37.428;-121.972;2024-01-25T13:46:50;16.25;;;5.05;;
50781;SDS011;36749;37.428;-121.972;2024-01-25T13:49:17;14.15;;;4.78;;
50781;SDS011;36749;37.428;-121.972;2024-01-25T13:51:43;10.65;;;4.55;;
50781;SDS011;36749;37.428;-121.972;2024-01-25T13:54:10;17.13;;;4.63;;
50781;SDS011;36749;37.428;-121.972;2024-01-25T13:56:36;15.15;;;4.68;;
50781;SDS011;36749;37.428;-121.972;2024-01-25T13:59:03;18.08;;;4.97;;
50781;SDS011;36749;37.428;-121.972;2024-01-25T14:01:29;18.65;;;5.07;;
50781;SDS011;36749;37.428;-121.972;2024-01-25T14:03:55;19.92;;;4.80;;
50781;SDS011;36749;37.428;-121.972;2024-01-25T14:06:22;18.20;;;4.70;;